Rosebud, Canada
Current Conditions -  °F | °C
As of 9:00 AM on Friday 28 Nov 2014 (Local Time) from CYYC Reporting Station
Light Snow Light Snow  
Wind Chill: -29°   Ceiling: 2800
Heat Index: -4°   Visibility: 4mi
Dew Point: -11°   Wind: 24mph
Humidity: 71%   Direction: 350°N
Pressure: 29.61"   Gusts: 30mph
Location:  51.3°N, 112.95°W
Report Text: CYYC 281600Z 35021G26KT 4SM -SN OVC028 M20/M24 A2961 RMK SC8 SLP117
Loading
Personal Weather Stations






























Interactive Weather Map New forecast layout! Learn more

10-Day Weather Forecast

Advertisements
Track Severe Weather on mobile